createdAt,value
2019-04-20T00:04:26.959Z,47.24
2019-04-20T00:07:12.271Z,47.13
2019-04-20T00:09:55.420Z,47.20
2019-04-20T00:12:34.140Z,47.26
2019-04-20T00:14:58.644Z,47.31
2019-04-20T00:17:32.988Z,47.38
2019-04-20T00:20:04.695Z,47.19
2019-04-20T00:23:13.454Z,47.02
2019-04-20T00:26:07.717Z,47.23
2019-04-20T00:28:45.627Z,47.31
2019-04-20T00:31:40.303Z,47.31
2019-04-20T00:34:03.748Z,47.47
2019-04-20T00:36:27.126Z,47.54
2019-04-20T00:38:58.265Z,47.60
2019-04-20T00:41:24.673Z,47.53
2019-04-20T00:43:53.378Z,47.58
2019-04-20T00:46:28.344Z,47.56
2019-04-20T00:48:55.825Z,47.67
2019-04-20T00:51:35.320Z,47.73
2019-04-20T00:53:51.775Z,47.72
2019-04-20T00:56:18.211Z,47.52
2019-04-20T00:59:03.096Z,47.71
2019-04-20T01:01:36.207Z,47.74
2019-04-20T01:04:07.121Z,47.79
2019-04-20T01:06:52.537Z,47.89
2019-04-20T01:09:32.861Z,47.72
2019-04-20T01:12:05.167Z,47.57
2019-04-20T01:14:37.897Z,47.84
2019-04-20T01:17:07.194Z,48.12
2019-04-20T01:19:28.017Z,48.17
2019-04-20T01:22:01.268Z,48.29
2019-04-20T01:24:32.814Z,48.22
2019-04-20T01:26:58.291Z,48.21
2019-04-20T01:29:34.934Z,48.38
2019-04-20T01:32:06.147Z,48.21
2019-04-20T01:34:37.993Z,48.32
2019-04-20T01:37:09.517Z,48.46
2019-04-20T01:39:28.349Z,48.55
2019-04-20T01:41:50.449Z,48.65
2019-04-20T01:44:24.567Z,48.67
2019-04-20T01:46:54.848Z,48.49
2019-04-20T01:49:21.036Z,48.52
2019-04-20T01:51:53.761Z,48.52
2019-04-20T01:54:32.158Z,48.58
2019-04-20T01:56:58.926Z,48.47
2019-04-20T01:59:50.151Z,48.49
2019-04-20T02:02:24.412Z,48.48
2019-04-20T02:04:58.808Z,48.93
2019-04-20T02:07:30.556Z,48.80
2019-04-20T02:09:58.350Z,49.02
2019-04-20T02:12:26.948Z,49.19
2019-04-20T02:14:56.089Z,49.27
2019-04-20T02:17:30.070Z,49.31
2019-04-20T02:20:12.527Z,49.47
2019-04-20T02:22:37.274Z,49.65
2019-04-20T02:24:47.132Z,49.65
2019-04-20T02:27:14.777Z,49.96
2019-04-20T02:30:07.404Z,50.18
2019-04-20T02:32:45.670Z,50.13
2019-04-20T02:38:21.798Z,50.50
2019-04-20T02:40:52.655Z,50.50
2019-04-20T02:43:15.285Z,50.85
2019-04-20T02:48:13.461Z,51.11
2019-04-20T02:50:43.280Z,51.07
2019-04-20T02:53:32.740Z,51.41
2019-04-20T02:58:07.669Z,51.98
2019-04-20T03:00:35.149Z,52.13
2019-04-20T03:02:53.093Z,52.36
2019-04-20T03:05:22.966Z,52.53
2019-04-20T03:08:01.148Z,52.41
2019-04-20T03:10:39.387Z,52.54
2019-04-20T03:12:57.021Z,52.68
2019-04-20T03:15:28.954Z,52.97
2019-04-20T03:17:57.465Z,52.80
2019-04-20T03:20:32.297Z,52.93
2019-04-20T03:23:17.734Z,52.87
2019-04-20T03:25:45.069Z,52.79
2019-04-20T03:28:10.684Z,52.92
2019-04-20T03:31:26.913Z,52.97
2019-04-20T03:35:52.771Z,52.98
2019-04-20T03:38:11.716Z,53.08
2019-04-20T03:40:34.581Z,53.10
2019-04-20T03:42:50.707Z,53.06
2019-04-20T03:45:21.309Z,52.92
2019-04-20T03:47:57.542Z,53.00
2019-04-20T03:50:37.121Z,53.00
2019-04-20T03:53:12.969Z,52.92
2019-04-20T03:55:54.082Z,52.88
2019-04-20T03:58:55.613Z,52.92
2019-04-20T04:02:17.067Z,53.00
2019-04-20T04:04:27.443Z,52.96
2019-04-20T04:06:46.302Z,53.08
2019-04-20T04:09:22.858Z,53.22
2019-04-20T04:11:52.338Z,53.30
2019-04-20T04:14:07.120Z,53.36
2019-04-20T04:16:42.038Z,53.37
2019-04-20T04:19:12.706Z,53.43
2019-04-20T04:21:49.746Z,53.41
2019-04-20T04:24:12.838Z,53.41
2019-04-20T04:26:48.890Z,52.96
2019-04-20T04:29:28.831Z,52.99
2019-04-20T04:31:59.538Z,52.66
2019-04-20T04:34:19.028Z,52.83
2019-04-20T04:36:49.942Z,52.74
2019-04-20T04:39:21.171Z,52.64
2019-04-20T04:41:52.294Z,52.50
2019-04-20T04:44:11.024Z,52.26
2019-04-20T04:46:26.791Z,52.17
2019-04-20T04:49:03.922Z,51.73
2019-04-20T04:51:29.484Z,51.71
2019-04-20T04:53:59.882Z,51.69
2019-04-20T04:56:23.981Z,51.60
2019-04-20T04:58:51.713Z,51.37
2019-04-20T05:01:24.857Z,51.01
2019-04-20T05:04:17.477Z,50.75
2019-04-20T05:06:33.124Z,50.38
2019-04-20T05:08:53.040Z,50.04
2019-04-20T05:11:19.607Z,47.87
2019-04-20T05:13:54.678Z,42.86
2019-04-20T05:16:38.297Z,37.24
2019-04-20T05:19:09.405Z,32.86
2019-04-20T05:21:53.870Z,29.63
2019-04-20T05:25:05.734Z,28.31
2019-04-20T05:27:51.230Z,28.92
2019-04-20T05:30:01.303Z,31.35
2019-04-20T05:32:41.351Z,33.67
2019-04-20T05:35:24.009Z,33.58
2019-04-20T05:37:58.612Z,29.05
2019-04-20T05:40:20.605Z,24.91
2019-04-20T05:42:48.842Z,21.53
2019-04-20T05:45:18.160Z,19.58
2019-04-20T05:47:50.801Z,18.21
2019-04-20T05:50:16.578Z,16.67
2019-04-20T05:52:59.847Z,15.67
2019-04-20T05:55:16.293Z,15.04
2019-04-20T05:57:50.735Z,14.42
2019-04-20T06:00:14.220Z,13.87
2019-04-20T06:02:45.165Z,13.13
2019-04-20T06:05:17.741Z,12.60
2019-04-20T06:07:42.518Z,12.66
2019-04-20T06:10:11.419Z,12.29
2019-04-20T06:12:39.998Z,11.50
2019-04-20T06:15:15.533Z,11.01
2019-04-20T06:18:02.825Z,10.78
2019-04-20T06:20:37.918Z,10.19
2019-04-20T06:23:28.519Z,10.16
2019-04-20T06:26:04.084Z,9.79
2019-04-20T06:28:22.807Z,9.74
2019-04-20T06:30:51.070Z,9.11
2019-04-20T06:36:32.259Z,8.19
2019-04-20T06:39:02.233Z,7.58
2019-04-20T06:41:55.452Z,6.99
2019-04-20T06:44:08.632Z,6.55
2019-04-20T06:46:29.210Z,6.55
2019-04-20T06:49:05.606Z,6.35
2019-04-20T06:51:34.706Z,6.29
2019-04-20T06:53:52.708Z,6.24
2019-04-20T06:56:35.630Z,6.26
2019-04-20T06:59:12.623Z,6.20
2019-04-20T07:01:42.322Z,6.17
2019-04-20T07:04:22.419Z,6.50
2019-04-20T07:09:09.606Z,6.00
2019-04-20T07:11:31.022Z,5.62
2019-04-20T07:13:47.001Z,5.75
2019-04-20T07:16:40.913Z,5.71
2019-04-20T07:19:31.365Z,5.59
2019-04-20T07:22:24.961Z,5.18
2019-04-20T07:24:53.316Z,5.82
2019-04-20T07:27:13.652Z,5.44
2019-04-20T07:29:46.367Z,5.46
2019-04-20T07:32:07.551Z,5.67
2019-04-20T07:34:40.171Z,5.32
2019-04-20T07:37:55.054Z,4.81
2019-04-20T07:39:48.231Z,4.46
2019-04-20T07:42:23.055Z,4.34
2019-04-20T07:44:50.803Z,4.14
2019-04-20T07:47:24.152Z,3.81
2019-04-20T07:49:41.642Z,3.91
2019-04-20T07:51:53.950Z,4.82
2019-04-20T07:54:47.593Z,5.23
2019-04-20T07:57:09.977Z,4.60
2019-04-20T07:59:30.071Z,4.14
2019-04-20T08:02:24.951Z,4.01
2019-04-20T08:05:01.770Z,4.46
2019-04-20T08:07:14.535Z,4.49
2019-04-20T08:09:49.757Z,4.34
2019-04-20T08:12:49.958Z,4.01
2019-04-20T08:15:24.103Z,3.83
2019-04-20T08:20:09.427Z,3.57
2019-04-20T08:22:42.447Z,3.70
2019-04-20T08:25:04.625Z,3.60
2019-04-20T08:27:23.630Z,3.33
2019-04-20T08:30:12.423Z,3.34
2019-04-20T08:33:10.004Z,3.22
2019-04-20T08:35:48.094Z,3.22
2019-04-20T08:38:36.948Z,3.04
2019-04-20T08:40:43.608Z,2.92
2019-04-20T08:43:21.063Z,3.12
2019-04-20T08:45:41.696Z,2.88
2019-04-20T08:48:17.399Z,2.91
2019-04-20T08:50:41.463Z,3.28
2019-04-20T08:53:21.950Z,3.20
2019-04-20T08:55:33.508Z,2.90
2019-04-20T08:57:49.286Z,3.07
2019-04-20T09:00:18.263Z,3.03
2019-04-20T09:02:52.314Z,3.08
2019-04-20T09:05:32.987Z,3.04
2019-04-20T09:07:56.592Z,3.46
2019-04-20T09:10:39.528Z,3.33
2019-04-20T09:12:58.592Z,3.28
2019-04-20T09:15:14.862Z,3.19
2019-04-20T09:18:09.098Z,3.41
2019-04-20T09:20:45.830Z,3.84
2019-04-20T09:23:17.185Z,4.32
2019-04-20T09:26:04.804Z,4.96
2019-04-20T09:28:32.264Z,5.25
2019-04-20T09:31:28.261Z,5.73
2019-04-20T09:34:21.611Z,5.50
2019-04-20T09:36:49.873Z,5.64
2019-04-20T09:39:21.113Z,5.94
2019-04-20T09:42:01.851Z,6.45
2019-04-20T09:44:35.453Z,6.89
2019-04-20T09:47:00.462Z,6.99
2019-04-20T09:49:39.967Z,7.56
2019-04-20T09:52:12.241Z,9.12
2019-04-20T09:54:48.156Z,11.53
2019-04-20T09:57:14.985Z,13.68
2019-04-20T09:59:44.093Z,15.31
2019-04-20T10:02:04.753Z,16.51
2019-04-20T10:04:23.968Z,17.64
2019-04-20T10:06:51.790Z,18.16
2019-04-20T10:09:21.948Z,18.11
2019-04-20T10:11:49.353Z,19.37
2019-04-20T10:14:17.421Z,20.15
2019-04-20T10:16:44.927Z,20.60
2019-04-20T10:19:13.662Z,20.96
2019-04-20T10:21:41.591Z,21.43
2019-04-20T10:24:08.794Z,21.42
2019-04-20T10:26:36.606Z,21.23
2019-04-20T10:29:04.002Z,20.96
2019-04-20T10:31:35.700Z,21.08
2019-04-20T10:34:00.218Z,21.69
2019-04-20T10:36:59.648Z,21.82
2019-04-20T10:39:27.079Z,21.80
2019-04-20T10:41:58.757Z,22.01
2019-04-20T10:44:24.975Z,22.10
2019-04-20T10:46:53.377Z,22.23
2019-04-20T10:49:20.579Z,22.31
2019-04-20T10:51:47.728Z,22.60
2019-04-20T10:54:16.144Z,20.87
2019-04-20T10:56:43.599Z,21.01
2019-04-20T10:59:11.878Z,22.69
2019-04-20T11:01:40.085Z,23.08
2019-04-20T11:04:08.428Z,23.27
2019-04-20T11:06:36.517Z,23.70
2019-04-20T11:09:06.791Z,22.09
2019-04-20T11:11:35.891Z,22.85
2019-04-20T11:14:11.789Z,23.19
2019-04-20T11:16:32.929Z,23.09
2019-04-20T11:19:01.038Z,23.79
2019-04-20T11:21:28.505Z,20.89
2019-04-20T11:23:56.691Z,21.95
2019-04-20T11:26:24.377Z,22.20
2019-04-20T11:28:52.485Z,22.75
2019-04-20T11:31:20.085Z,22.16
2019-04-20T11:33:48.015Z,20.67
2019-04-20T11:36:15.348Z,19.72
2019-04-20T11:38:42.913Z,19.59
2019-04-20T11:41:18.233Z,20.05
2019-04-20T11:46:07.099Z,20.45
2019-04-20T11:48:34.371Z,20.29
2019-04-20T11:51:01.523Z,19.51
2019-04-20T11:53:30.450Z,19.39
2019-04-20T11:55:58.467Z,18.94
2019-04-20T11:58:26.150Z,19.46
2019-04-20T12:01:01.254Z,19.58
2019-04-20T12:03:31.484Z,19.88
2019-04-20T12:05:59.011Z,18.10
2019-04-20T12:08:24.872Z,18.75
2019-04-20T12:10:56.676Z,18.86
2019-04-20T12:13:22.683Z,19.53
2019-04-20T12:15:49.984Z,20.88
2019-04-20T12:18:17.983Z,21.28
2019-04-20T12:20:46.993Z,21.06
2019-04-20T12:23:14.301Z,20.66
2019-04-20T12:25:44.199Z,18.74
2019-04-20T12:28:11.630Z,18.25
2019-04-20T12:30:39.729Z,19.18
2019-04-20T12:33:07.476Z,19.11
2019-04-20T12:35:36.121Z,18.70
2019-04-20T12:38:03.544Z,18.62
2019-04-20T12:40:32.346Z,18.06
2019-04-20T12:42:59.654Z,18.58
2019-04-20T12:45:27.159Z,18.47
2019-04-20T12:47:55.485Z,18.13
2019-04-20T12:50:23.469Z,17.90
2019-04-20T12:52:50.731Z,18.13
2019-04-20T12:55:18.814Z,16.30
2019-04-20T12:57:46.992Z,16.46
2019-04-20T13:00:15.372Z,16.21
2019-04-20T13:02:43.273Z,16.27
2019-04-20T13:05:13.457Z,16.10
2019-04-20T13:07:46.344Z,15.45
2019-04-20T13:10:11.637Z,15.83
2019-04-20T13:12:56.410Z,15.38
2019-04-20T13:15:56.279Z,15.58
2019-04-20T13:18:29.571Z,15.76
2019-04-20T13:20:58.815Z,15.56
2019-04-20T13:23:26.824Z,15.83
2019-04-20T13:25:54.937Z,15.58
2019-04-20T13:28:23.165Z,16.13
2019-04-20T13:30:50.461Z,16.45
2019-04-20T13:33:17.677Z,16.48
2019-04-20T13:35:46.091Z,16.74
2019-04-20T13:38:20.339Z,16.65
2019-04-20T13:40:48.170Z,16.38
2019-04-20T13:43:15.368Z,16.33
2019-04-20T13:45:42.712Z,16.69
2019-04-20T13:48:11.014Z,16.79
2019-04-20T13:50:38.275Z,16.76
2019-04-20T13:53:05.558Z,16.90
2019-04-20T13:55:33.846Z,16.54
2019-04-20T13:58:22.064Z,16.56
2019-04-20T14:01:12.616Z,16.70
2019-04-20T14:03:40.745Z,16.34
2019-04-20T14:06:08.996Z,16.32
2019-04-20T14:08:36.655Z,16.38
2019-04-20T14:11:05.180Z,16.23
2019-04-20T14:13:39.193Z,15.93
2019-04-20T14:16:02.980Z,15.94
2019-04-20T14:18:31.150Z,16.01
2019-04-20T14:20:58.412Z,15.86
2019-04-20T14:23:25.565Z,15.52
2019-04-20T14:25:52.780Z,15.80
2019-04-20T14:28:20.975Z,15.78
2019-04-20T14:30:49.865Z,15.98
2019-04-20T14:33:17.098Z,15.72
2019-04-20T14:35:45.119Z,16.02
2019-04-20T14:38:13.133Z,15.49
2019-04-20T14:40:40.394Z,15.63
2019-04-20T14:43:08.823Z,15.89
2019-04-20T14:45:36.647Z,15.81
2019-04-20T14:48:03.840Z,16.21
2019-04-20T14:50:31.721Z,15.07
2019-04-20T14:52:59.799Z,15.12
2019-04-20T14:55:27.266Z,15.23
2019-04-20T14:57:57.385Z,15.17
2019-04-20T15:01:06.786Z,15.19
2019-04-20T15:03:38.389Z,15.17
2019-04-20T15:06:05.588Z,15.15
2019-04-20T15:08:34.485Z,15.12
2019-04-20T15:11:02.975Z,15.24
2019-04-20T15:13:30.823Z,15.61
2019-04-20T15:15:58.995Z,15.85
2019-04-20T15:18:31.422Z,16.33
2019-04-20T15:21:00.043Z,16.86
2019-04-20T15:23:27.858Z,17.32
2019-04-20T15:25:55.302Z,17.55
2019-04-20T15:28:24.066Z,17.51
2019-04-20T15:30:52.105Z,17.73
2019-04-20T15:33:19.277Z,17.70
2019-04-20T15:35:46.375Z,17.81
2019-04-20T15:38:13.473Z,18.01
2019-04-20T15:40:41.476Z,18.19
2019-04-20T15:43:14.419Z,18.38
2019-04-20T15:45:39.134Z,18.46
2019-04-20T15:48:06.340Z,18.96
2019-04-20T15:50:33.913Z,19.01
2019-04-20T15:53:02.643Z,19.10
2019-04-20T15:55:35.575Z,19.18
2019-04-20T15:57:59.734Z,18.44
2019-04-20T16:00:26.895Z,18.48
2019-04-20T16:03:17.160Z,18.79
2019-04-20T16:05:49.306Z,18.55
2019-04-20T16:08:23.797Z,18.11
2019-04-20T16:10:51.071Z,18.56
2019-04-20T16:13:26.113Z,18.84
2019-04-20T16:15:47.653Z,18.82
2019-04-20T16:18:14.859Z,18.90
2019-04-20T16:20:52.018Z,18.97
2019-04-20T16:23:12.430Z,18.86
2019-04-20T16:26:05.880Z,18.59
2019-04-20T16:28:33.256Z,18.78
2019-04-20T16:31:01.484Z,18.50
2019-04-20T16:33:28.811Z,18.79
2019-04-20T16:35:56.434Z,18.89
2019-04-20T16:38:27.255Z,19.17
2019-04-20T16:40:54.453Z,19.23
2019-04-20T16:43:29.433Z,19.24
2019-04-20T16:45:51.047Z,19.16
2019-04-20T16:48:18.283Z,19.21
2019-04-20T16:50:46.777Z,19.38
2019-04-20T16:53:15.031Z,19.76
2019-04-20T16:55:43.066Z,19.69
2019-04-20T16:58:10.296Z,19.75
2019-04-20T17:00:37.759Z,19.92
2019-04-20T17:03:04.888Z,20.15
2019-04-20T17:05:32.020Z,20.11
2019-04-20T17:08:00.581Z,20.22
2019-04-20T17:10:28.891Z,20.36
2019-04-20T17:12:57.659Z,20.41
2019-04-20T17:15:25.570Z,20.53
2019-04-20T17:17:53.798Z,20.57
2019-04-20T17:20:24.975Z,20.47
2019-04-20T17:22:51.053Z,20.55
2019-04-20T17:25:19.642Z,20.79
2019-04-20T17:28:05.140Z,21.32
2019-04-20T17:30:59.012Z,21.86
2019-04-20T17:33:51.779Z,22.20
2019-04-20T17:36:12.432Z,22.72
2019-04-20T17:38:41.795Z,22.81
2019-04-20T17:41:29.145Z,22.94
2019-04-20T17:43:56.714Z,23.26
2019-04-20T17:46:12.125Z,23.60
2019-04-20T17:48:45.195Z,23.94
2019-04-20T17:51:22.430Z,23.97
2019-04-20T17:53:58.551Z,24.25
2019-04-20T17:56:24.354Z,24.39
2019-04-20T17:58:52.276Z,24.63
2019-04-20T18:02:02.288Z,24.92
2019-04-20T18:04:49.372Z,25.20
2019-04-20T18:07:00.858Z,25.73
2019-04-20T18:09:47.515Z,25.93
2019-04-20T18:11:52.768Z,26.19
2019-04-20T18:14:38.636Z,26.49
2019-04-20T18:17:11.021Z,26.55
2019-04-20T18:19:32.696Z,26.90
2019-04-20T18:22:01.646Z,27.33
2019-04-20T18:24:55.774Z,28.06
2019-04-20T18:27:18.760Z,28.51
2019-04-20T18:29:50.351Z,28.91
2019-04-20T18:32:05.347Z,29.58
2019-04-20T18:35:10.536Z,29.63
2019-04-20T18:37:39.612Z,29.92
2019-04-20T18:40:12.477Z,30.24
2019-04-20T18:43:09.373Z,30.55
2019-04-20T18:46:20.328Z,30.93
2019-04-20T18:48:50.958Z,31.08
2019-04-20T18:55:22.255Z,31.54
2019-04-20T18:58:15.233Z,31.37
2019-04-20T19:01:57.395Z,31.99
2019-04-20T19:04:41.781Z,32.32
2019-04-20T19:07:15.243Z,32.84
2019-04-20T19:09:43.194Z,33.01
2019-04-20T19:12:32.574Z,33.13
2019-04-20T19:15:37.391Z,33.32
2019-04-20T19:18:12.880Z,33.29
2019-04-20T19:20:37.013Z,33.22
2019-04-20T19:23:04.340Z,32.47
2019-04-20T19:25:36.987Z,32.80
2019-04-20T19:28:01.995Z,32.66
2019-04-20T19:30:37.418Z,32.84
2019-04-20T19:33:14.941Z,33.29
2019-04-20T19:35:45.415Z,33.22
2019-04-20T19:38:57.722Z,33.36
2019-04-20T19:45:17.538Z,33.51
2019-04-20T19:47:50.276Z,33.70
2019-04-20T19:50:44.141Z,33.81
2019-04-20T19:53:06.862Z,33.09
2019-04-20T19:55:20.773Z,32.38
2019-04-20T19:57:51.266Z,32.04
2019-04-20T20:00:06.380Z,32.12
2019-04-20T20:02:34.047Z,31.88
2019-04-20T20:05:07.159Z,31.87
2019-04-20T20:07:38.056Z,31.82
2019-04-20T20:10:05.236Z,32.21
2019-04-20T20:12:29.557Z,32.73
2019-04-20T20:14:57.425Z,33.84
2019-04-20T20:17:46.956Z,34.34
2019-04-20T20:20:19.954Z,34.27
2019-04-20T20:22:32.239Z,34.33
2019-04-20T20:24:52.637Z,34.63
2019-04-20T20:27:31.392Z,35.02
2019-04-20T20:30:03.799Z,35.53
2019-04-20T20:32:31.020Z,35.89
2019-04-20T20:34:58.596Z,35.90
2019-04-20T20:37:29.575Z,36.13
2019-04-20T20:39:53.803Z,36.51
2019-04-20T20:42:28.355Z,36.94
2019-04-20T20:44:52.608Z,37.18
2019-04-20T20:47:37.304Z,37.51
2019-04-20T20:50:07.975Z,37.52
2019-04-20T20:52:28.745Z,37.77
2019-04-20T20:54:52.591Z,38.05
2019-04-20T20:57:15.364Z,38.17
2019-04-20T20:59:49.426Z,37.71
2019-04-20T21:02:18.267Z,38.12
2019-04-20T21:04:37.689Z,38.13
2019-04-20T21:07:04.816Z,38.17
2019-04-20T21:09:33.439Z,38.35
2019-04-20T21:12:07.000Z,38.51
2019-04-20T21:14:34.701Z,38.41
2019-04-20T21:17:05.222Z,38.59
2019-04-20T21:19:49.727Z,38.74
2019-04-20T21:22:04.890Z,39.10
2019-04-20T21:24:30.345Z,39.28
2019-04-20T21:27:01.603Z,38.83
2019-04-20T21:29:35.372Z,39.18
2019-04-20T21:32:03.558Z,39.17
2019-04-20T21:34:26.145Z,39.35
2019-04-20T21:37:01.993Z,39.26
2019-04-20T21:39:34.574Z,39.29
2019-04-20T21:41:59.491Z,39.17
2019-04-20T21:44:28.494Z,39.22
2019-04-20T21:46:54.633Z,39.27
2019-04-20T21:49:36.184Z,39.14
2019-04-20T21:51:57.416Z,39.15
2019-04-20T21:54:20.192Z,39.19
2019-04-20T21:56:53.854Z,39.35
2019-04-20T21:59:24.432Z,39.21
2019-04-20T22:01:56.438Z,39.28
2019-04-20T22:04:14.892Z,39.45
2019-04-20T22:06:44.611Z,39.50
2019-04-20T22:09:12.809Z,39.23
2019-04-20T22:11:40.198Z,39.48
2019-04-20T22:14:12.888Z,39.29
2019-04-20T22:16:43.585Z,39.39
2019-04-20T22:19:22.437Z,39.57
2019-04-20T22:21:46.270Z,39.90
2019-04-20T22:24:19.470Z,40.03
2019-04-20T22:26:47.811Z,39.99
2019-04-20T22:29:02.535Z,39.81
2019-04-20T22:31:29.953Z,39.48
2019-04-20T22:34:02.281Z,39.48
2019-04-20T22:36:34.123Z,39.74
2019-04-20T22:39:13.794Z,40.06
2019-04-20T22:41:59.124Z,40.17
2019-04-20T22:44:26.323Z,40.21
2019-04-20T22:46:52.165Z,40.17
2019-04-20T22:49:36.344Z,39.99
2019-04-20T22:51:58.819Z,40.17
2019-04-20T22:54:36.346Z,40.21
2019-04-20T22:56:57.200Z,40.20
2019-04-20T22:59:22.394Z,40.40
2019-04-20T23:01:51.471Z,40.36
2019-04-20T23:04:15.010Z,40.50
2019-04-20T23:06:47.727Z,40.59
2019-04-20T23:09:14.723Z,40.60
2019-04-20T23:11:42.109Z,40.55
2019-04-20T23:14:10.850Z,40.28
2019-04-20T23:16:43.871Z,40.09
2019-04-20T23:19:08.047Z,40.22
2019-04-20T23:21:35.373Z,40.25
2019-04-20T23:24:07.663Z,40.26
2019-04-20T23:26:36.866Z,40.36
2019-04-20T23:29:02.693Z,40.23
2019-04-20T23:31:30.746Z,40.17
2019-04-20T23:34:01.401Z,40.17
2019-04-20T23:36:36.506Z,40.36
2019-04-20T23:39:02.596Z,40.47
2019-04-20T23:41:28.016Z,40.55
2019-04-20T23:44:29.670Z,40.49
2019-04-20T23:47:21.871Z,40.77
2019-04-20T23:50:12.074Z,41.25
2019-04-20T23:52:42.823Z,41.28
2019-04-20T23:54:59.095Z,41.47
2019-04-20T23:57:22.216Z,41.35
2019-04-20T23:59:50.287Z,41.27
